Time;durP1;ratioP1;P1;durP2;ratioP2;P2;SDS_P1;SDS_P2;PMS_P1;PMS_P2;Temp;Humidity;BMP_temperature;BMP_pressure;BME280_temperature;BME280_humidity;BME280_pressure;Samples;Min_cycle;Max_cycle;Signal;HPM_P1;HPM_P2
2021/08/09 00:01:36;;;;;;;17.63;5.90;;;16.10;99.90;;;;;;5036279;28;20361;-77
2021/08/09 00:04:03;;;;;;;16.05;6.10;;;16.10;99.90;;;;;;5054090;28;20486;-79
2021/08/09 00:06:30;;;;;;;16.70;5.93;;;16.10;99.90;;;;;;5054428;28;20036;-77
2021/08/09 00:08:58;;;;;;;18.98;6.03;;;16.00;99.90;;;;;;5054349;28;20044;-79
2021/08/09 00:11:24;;;;;;;19.20;6.25;;;15.90;99.90;;;;;;5053895;28;20036;-78
2021/08/09 00:13:49;;;;;;;;;;;16.00;99.90;;;;;;5054345;28;20013;-77
2021/08/09 00:16:15;;;;;;;18.90;5.78;;;15.90;99.90;;;;;;5053906;28;19909;-78
2021/08/09 00:18:45;;;;;;;;;;;15.90;99.90;;;;;;5054277;28;20029;-78
2021/08/09 00:21:12;;;;;;;18.95;6.13;;;16.00;99.90;;;;;;5053914;28;19909;-78
2021/08/09 00:23:38;;;;;;;19.45;6.20;;;15.90;99.90;;;;;;5053638;28;20473;-79
2021/08/09 00:26:04;;;;;;;;;;;15.90;99.90;;;;;;5053992;28;20074;-77
2021/08/09 00:28:29;;;;;;;17.70;6.15;;;15.80;99.90;;;;;;5035840;28;19995;-78
2021/08/09 00:30:55;;;;;;;;;;;15.90;99.90;;;;;;5054060;28;20021;-77
2021/08/09 00:33:21;;;;;;;14.13;5.43;;;15.90;99.90;;;;;;5053623;28;19995;-77
2021/08/09 00:35:47;;;;;;;13.38;6.57;;;15.90;99.90;;;;;;5053213;28;20033;-79
2021/08/09 00:38:12;;;;;;;;;;;15.90;99.90;;;;;;5054235;28;20039;-78
2021/08/09 00:40:38;;;;;;;15.95;5.72;;;15.90;99.90;;;;;;5053617;28;20373;-78
2021/08/09 00:43:05;;;;;;;14.07;6.03;;;15.90;99.90;;;;;;5053524;28;20032;-77
2021/08/09 00:45:31;;;;;;;14.02;6.25;;;15.90;99.90;;;;;;5052972;28;20131;-78
2021/08/09 00:47:56;;;;;;;;;;;15.90;99.90;;;;;;5053749;28;20101;-79
2021/08/09 00:50:22;;;;;;;15.85;6.63;;;15.90;99.90;;;;;;5053334;28;19944;-79
2021/08/09 00:52:50;;;;;;;17.70;6.38;;;16.00;99.90;;;;;;5053528;28;20470;-78
2021/08/09 00:55:17;;;;;;;22.88;7.68;;;15.90;99.90;;;;;;5053270;28;20023;-78
2021/08/09 00:57:43;;;;;;;18.00;6.50;;;15.80;99.90;;;;;;5053212;28;20017;-78
2021/08/09 01:00:09;;;;;;;;;;;15.80;99.90;;;;;;5054017;28;20024;-77
2021/08/09 01:02:34;;;;;;;18.05;6.30;;;15.80;99.90;;;;;;5053383;28;19943;-78
2021/08/09 01:05:02;;;;;;;;;;;15.90;99.90;;;;;;5053590;28;20434;-76
2021/08/09 01:07:35;;;;;;;18.88;6.22;;;15.90;99.90;;;;;;5053089;28;20286;-78
2021/08/09 01:10:18;;;;;;;16.33;6.32;;;15.90;99.90;;;;;;5052574;28;20028;-77
2021/08/09 01:12:55;;;;;;;21.73;6.40;;;15.90;99.90;;;;;;5053408;28;20020;-77
2021/08/09 01:15:29;;;;;;;21.08;6.28;;;15.90;99.90;;;;;;5034850;28;20025;-76
2021/08/09 01:18:00;;;;;;;22.02;6.93;;;16.00;99.90;;;;;;5053069;28;20493;-78
2021/08/09 01:20:56;;;;;;;17.20;6.47;;;15.90;99.90;;;;;;5052988;28;20029;-79
2021/08/09 01:23:44;;;;;;;15.60;7.25;;;16.00;99.90;;;;;;5053112;28;20028;-78
2021/08/09 01:26:42;;;;;;;16.95;6.85;;;16.00;99.90;;;;;;5052893;28;20052;-77
2021/08/09 01:29:14;;;;;;;19.67;6.55;;;16.10;99.90;;;;;;5053242;28;20059;-78
2021/08/09 01:31:46;;;;;;;16.48;6.35;;;16.20;99.90;;;;;;5035020;28;20029;-77
2021/08/09 01:34:13;;;;;;;26.42;7.47;;;16.10;99.90;;;;;;5034976;28;20082;-78
2021/08/09 01:36:49;;;;;;;17.25;7.40;;;16.00;99.90;;;;;;5053117;28;20374;-78
2021/08/09 01:39:16;;;;;;;25.60;7.78;;;16.00;99.90;;;;;;5053036;28;20025;-77
2021/08/09 01:41:43;;;;;;;19.13;7.18;;;15.80;99.90;;;;;;5052846;28;20057;-77
2021/08/09 01:44:10;;;;;;;19.17;7.30;;;15.70;99.90;;;;;;5052725;28;20048;-77
2021/08/09 01:46:37;;;;;;;22.60;7.80;;;15.70;99.90;;;;;;5052791;28;20112;-78
2021/08/09 01:49:04;;;;;;;18.05;7.45;;;15.70;99.90;;;;;;5034832;28;20075;-77
2021/08/09 01:51:32;;;;;;;24.38;11.35;;;15.80;99.90;;;;;;5052713;28;20029;-77
2021/08/09 01:54:00;;;;;;;19.70;7.40;;;15.70;99.90;;;;;;5052663;28;20097;-77
2021/08/09 01:56:27;;;;;;;17.10;7.18;;;15.70;99.90;;;;;;5052665;28;20048;-77
2021/08/09 01:58:52;;;;;;;19.65;8.57;;;15.70;99.90;;;;;;5052643;28;20074;-77
2021/08/09 02:01:19;;;;;;;;;;;15.60;99.90;;;;;;5053108;28;20032;-77
2021/08/09 02:03:45;;;;;;;15.30;6.78;;;15.60;99.90;;;;;;5052596;28;19912;-78
2021/08/09 02:06:10;;;;;;;;;;;15.60;99.90;;;;;;5053362;28;20130;-78
2021/08/09 02:08:36;;;;;;;13.90;6.55;;;15.60;99.90;;;;;;5052789;28;19905;-77
2021/08/09 02:11:16;;;;;;;14.80;6.78;;;15.60;99.90;;;;;;5052542;28;20469;-77
2021/08/09 02:13:53;;;;;;;15.38;6.65;;;15.70;99.90;;;;;;5034376;28;20444;-77
2021/08/09 02:16:42;;;;;;;15.57;6.82;;;15.60;99.90;;;;;;5052878;28;20175;-76
2021/08/09 02:19:16;;;;;;;14.88;6.72;;;15.50;99.90;;;;;;5052389;28;20075;-77
2021/08/09 02:21:58;;;;;;;12.32;5.60;;;15.50;99.90;;;;;;5053661;28;20393;-76
2021/08/09 02:24:29;;;;;;;13.13;6.22;;;15.60;99.90;;;;;;5056331;28;20025;-76
2021/08/09 02:26:59;;;;;;;12.85;6.07;;;15.60;99.90;;;;;;5037754;28;20025;-78
2021/08/09 02:29:31;;;;;;;11.85;5.53;;;15.70;99.90;;;;;;5055889;28;20078;-77
2021/08/09 02:31:58;;;;;;;14.98;6.30;;;15.90;99.90;;;;;;5055892;28;20147;-79
2021/08/09 02:34:28;;;;;;;10.48;5.63;;;15.80;99.90;;;;;;5055939;28;20028;-76
2021/08/09 02:36:54;;;;;;;10.38;5.45;;;15.70;99.90;;;;;;5055809;28;20474;-77
2021/08/09 02:39:21;;;;;;;9.90;5.63;;;15.80;99.90;;;;;;5037808;28;20033;-77
2021/08/09 02:41:47;;;;;;;10.25;5.15;;;15.90;99.90;;;;;;5055813;28;20234;-77
2021/08/09 02:44:14;;;;;;;12.40;5.78;;;15.80;99.90;;;;;;5055595;28;20037;-78
2021/08/09 02:46:41;;;;;;;12.07;5.43;;;15.80;99.90;;;;;;5055463;28;20029;-78
2021/08/09 02:49:10;;;;;;;13.57;5.75;;;15.90;99.90;;;;;;5055528;28;20024;-76
2021/08/09 02:51:36;;;;;;;12.63;5.72;;;15.90;99.90;;;;;;5055491;28;20171;-77
2021/08/09 02:54:02;;;;;;;;;;;15.90;99.90;;;;;;5055798;28;20025;-78
2021/08/09 02:56:30;;;;;;;9.40;5.65;;;15.90;99.90;;;;;;5055515;28;19942;-77
2021/08/09 02:58:56;;;;;;;12.57;6.32;;;15.80;99.90;;;;;;5055334;28;20448;-78
2021/08/09 03:01:26;;;;;;;11.43;5.70;;;15.80;99.90;;;;;;5055279;28;20390;-78
2021/08/09 03:03:56;;;;;;;13.35;5.05;;;15.70;99.90;;;;;;5055275;28;20025;-78
2021/08/09 03:06:22;;;;;;;11.20;5.40;;;15.90;99.90;;;;;;5055130;28;20028;-78
2021/08/09 03:08:49;;;;;;;11.95;5.07;;;15.90;99.90;;;;;;5055128;28;20044;-77
2021/08/09 03:11:15;;;;;;;10.90;5.50;;;15.90;99.90;;;;;;5055094;28;20013;-76
2021/08/09 03:13:45;;;;;;;;;;;15.90;99.90;;;;;;5055463;28;20049;-77
2021/08/09 03:16:11;;;;;;;11.02;5.30;;;16.00;99.90;;;;;;5055464;28;19916;-77
2021/08/09 03:18:37;;;;;;;10.88;5.53;;;16.00;99.90;;;;;;5037410;28;20029;-78
2021/08/09 03:21:03;;;;;;;;;;;16.10;99.90;;;;;;5055490;28;20434;-78
2021/08/09 03:23:29;;;;;;;13.07;5.65;;;15.90;99.90;;;;;;5054886;28;19955;-76
2021/08/09 03:25:54;;;;;;;17.08;6.63;;;15.90;99.90;;;;;;5054645;28;20397;-76
2021/08/09 03:28:20;;;;;;;;;;;15.80;99.90;;;;;;5055356;28;20481;-77
2021/08/09 03:30:46;;;;;;;12.48;5.82;;;15.70;99.90;;;;;;5054801;28;20061;-77
2021/08/09 03:33:11;;;;;;;12.02;6.00;;;15.80;99.90;;;;;;5054336;28;20017;-76
2021/08/09 03:35:37;;;;;;;;;;;15.80;99.90;;;;;;5037177;28;20032;-77
2021/08/09 03:38:03;;;;;;;11.93;5.68;;;15.80;99.90;;;;;;5054641;28;19905;-76
2021/08/09 03:40:29;;;;;;;;;;;15.80;99.90;;;;;;5054988;28;20017;-77
2021/08/09 03:42:54;;;;;;;15.38;6.35;;;15.90;99.90;;;;;;5054697;28;19904;-79
2021/08/09 03:45:20;;;;;;;;;;;15.90;99.90;;;;;;5054482;28;20052;-78
2021/08/09 03:47:46;;;;;;;12.52;5.88;;;15.90;99.90;;;;;;5054403;28;19909;-79
2021/08/09 03:50:12;;;;;;;14.65;6.03;;;15.90;99.90;;;;;;5054391;28;20021;-78
2021/08/09 03:52:54;;;;;;;12.98;6.03;;;15.90;99.90;;;;;;5054418;28;20025;-78
2021/08/09 03:55:21;;;;;;;15.30;7.25;;;15.80;99.90;;;;;;5054353;28;20067;-78
2021/08/09 03:57:46;;;;;;;16.80;7.60;;;15.80;99.90;;;;;;5054279;28;20078;-79
2021/08/09 04:00:13;;;;;;;12.75;6.50;;;15.70;99.90;;;;;;5054199;28;20428;-77
2021/08/09 04:02:39;;;;;;;10.88;5.78;;;15.60;99.90;;;;;;5054084;28;20400;-78
2021/08/09 04:05:06;;;;;;;;;;;15.70;99.90;;;;;;5036585;28;20112;-77
2021/08/09 04:07:31;;;;;;;14.77;5.95;;;15.70;99.90;;;;;;5053957;28;19913;-76
2021/08/09 04:09:57;;;;;;;;;;;15.70;99.90;;;;;;5054557;28;20414;-78
2021/08/09 04:12:23;;;;;;;13.07;6.20;;;15.70;99.90;;;;;;5054137;28;19912;-77
2021/08/09 04:14:49;;;;;;;13.25;6.22;;;15.70;99.90;;;;;;5054082;28;20104;-77
2021/08/09 04:17:15;;;;;;;11.88;7.10;;;15.70;99.90;;;;;;5053902;28;20052;-77
2021/08/09 04:19:41;;;;;;;14.77;5.75;;;15.70;99.90;;;;;;5053864;28;20029;-79
2021/08/09 04:22:07;;;;;;;17.85;7.20;;;15.70;99.90;;;;;;5035908;28;20040;-76
2021/08/09 04:24:33;;;;;;;;;;;15.60;99.90;;;;;;5036267;28;20394;-78
2021/08/09 04:26:59;;;;;;;17.42;7.13;;;15.60;99.90;;;;;;5053624;28;19909;-76
2021/08/09 04:29:24;;;;;;;;;;;15.50;99.90;;;;;;5054063;28;20024;-77
2021/08/09 04:31:50;;;;;;;15.65;6.00;;;15.50;99.90;;;;;;5053612;28;19904;-77
2021/08/09 04:34:16;;;;;;;12.40;6.05;;;15.50;99.90;;;;;;5053794;28;20044;-76
2021/08/09 04:36:41;;;;;;;;;;;15.50;99.90;;;;;;5054229;28;20040;-76
2021/08/09 04:39:08;;;;;;;17.15;5.95;;;15.50;99.90;;;;;;5053520;28;19904;-77
2021/08/09 04:41:33;;;;;;;13.00;5.93;;;15.50;99.90;;;;;;5053440;28;20021;-76
2021/08/09 04:43:59;;;;;;;;;;;15.50;99.90;;;;;;5052883;28;20059;-77
2021/08/09 04:46:25;;;;;;;13.52;5.88;;;15.50;99.90;;;;;;5035448;28;20440;-78
2021/08/09 04:48:51;;;;;;;13.55;6.00;;;15.40;99.90;;;;;;5053460;28;20445;-77
2021/08/09 04:51:16;;;;;;;17.98;5.65;;;15.40;99.90;;;;;;5053314;28;20543;-77
2021/08/09 04:53:43;;;;;;;13.00;5.70;;;15.40;99.90;;;;;;5053307;28;20049;-78
2021/08/09 04:56:09;;;;;;;16.63;6.18;;;15.60;99.90;;;;;;5053293;28;20033;-77
2021/08/09 04:58:35;;;;;;;;;;;15.50;99.90;;;;;;5053937;28;20021;-77
2021/08/09 05:01:01;;;;;;;14.23;5.75;;;15.50;99.90;;;;;;5053241;28;20262;-76
2021/08/09 05:03:26;;;;;;;11.68;5.30;;;15.50;99.90;;;;;;5053598;28;20048;-79
2021/08/09 05:05:52;;;;;;;12.20;5.97;;;15.60;99.90;;;;;;5035202;28;20508;-78
2021/08/09 05:08:18;;;;;;;;;;;15.70;99.90;;;;;;5053751;28;20024;-79
2021/08/09 05:10:44;;;;;;;10.73;5.63;;;15.70;99.90;;;;;;5053139;28;19978;-77
2021/08/09 05:13:10;;;;;;;;;;;15.60;99.90;;;;;;5053496;28;20096;-76
2021/08/09 05:15:37;;;;;;;13.48;5.95;;;15.70;99.90;;;;;;5053015;28;19908;-77
2021/08/09 05:18:03;;;;;;;16.52;6.13;;;15.60;99.90;;;;;;5052956;28;20017;-78
2021/08/09 05:20:30;;;;;;;13.85;7.00;;;15.60;99.90;;;;;;5052999;28;20097;-77
2021/08/09 05:22:56;;;;;;;13.98;5.70;;;15.40;99.90;;;;;;5052997;28;20021;-78
2021/08/09 05:25:22;;;;;;;;;;;15.50;99.90;;;;;;5053319;28;20501;-77
2021/08/09 05:27:48;;;;;;;11.00;5.50;;;15.40;99.90;;;;;;5052886;28;19974;-77
2021/08/09 05:30:14;;;;;;;13.63;5.57;;;15.50;99.90;;;;;;5052886;28;20389;-79
2021/08/09 05:32:40;;;;;;;;;;;15.60;99.90;;;;;;5053289;28;20018;-77
2021/08/09 05:35:08;;;;;;;10.90;5.28;;;15.60;99.90;;;;;;5052862;28;19905;-76
2021/08/09 05:37:34;;;;;;;13.10;5.88;;;15.70;99.90;;;;;;5053030;28;20040;-77
2021/08/09 05:40:03;;;;;;;13.82;6.03;;;15.90;99.90;;;;;;5052771;28;20481;-77
2021/08/09 05:42:28;;;;;;;10.45;6.22;;;15.90;99.90;;;;;;5052782;28;20113;-77
2021/08/09 05:44:54;;;;;;;;;;;15.90;99.90;;;;;;5053021;28;20115;-78
2021/08/09 05:47:20;;;;;;;10.02;5.53;;;15.90;99.90;;;;;;5052762;28;20375;-77
2021/08/09 05:49:47;;;;;;;10.45;5.72;;;15.90;99.90;;;;;;5034841;28;20036;-77
2021/08/09 05:52:24;;;;;;;14.60;5.82;;;15.90;99.90;;;;;;5052757;28;20024;-76
2021/08/09 05:54:50;;;;;;;10.27;5.30;;;16.00;99.90;;;;;;5052677;28;20481;-76
2021/08/09 05:57:15;;;;;;;;;;;16.10;99.90;;;;;;5056823;28;20079;-77
2021/08/09 05:59:41;;;;;;;14.23;5.43;;;16.00;99.90;;;;;;5056714;28;19912;-78
2021/08/09 06:02:07;;;;;;;;;;;16.10;99.90;;;;;;5056837;28;20067;-78
2021/08/09 06:04:33;;;;;;;12.80;6.35;;;16.00;99.90;;;;;;5056645;28;19904;-77
2021/08/09 06:06:58;;;;;;;10.85;5.95;;;16.00;99.90;;;;;;5056406;28;20551;-78
2021/08/09 06:09:24;;;;;;;;;;;16.00;99.90;;;;;;5056703;28;20025;-76
2021/08/09 06:11:50;;;;;;;12.20;6.07;;;15.90;99.90;;;;;;5056361;28;19904;-77
2021/08/09 06:14:16;;;;;;;;;;;15.90;99.90;;;;;;5056685;28;20017;-77
2021/08/09 06:16:41;;;;;;;16.98;6.97;;;16.20;99.90;;;;;;5056222;28;19999;-78
2021/08/09 06:19:07;;;;;;;;;;;16.10;99.90;;;;;;5056756;28;20474;-76
2021/08/09 06:21:33;;;;;;;13.63;5.82;;;16.20;99.90;;;;;;5056372;28;19904;-78
2021/08/09 06:23:58;;;;;;;;;;;16.20;99.90;;;;;;5056416;28;20032;-77
2021/08/09 06:26:24;;;;;;;14.77;6.43;;;16.10;99.90;;;;;;5055975;28;19908;-77
2021/08/09 06:28:50;;;;;;;12.40;6.05;;;16.20;99.90;;;;;;5055967;28;20021;-77
2021/08/09 06:31:16;;;;;;;;;;;16.40;99.90;;;;;;5056261;28;20021;-78
2021/08/09 06:33:41;;;;;;;12.50;6.28;;;16.30;99.90;;;;;;5055847;28;19905;-76
2021/08/09 06:36:07;;;;;;;;;;;16.30;99.90;;;;;;5038287;28;20029;-77
2021/08/09 06:38:33;;;;;;;26.95;14.38;;;16.20;99.90;;;;;;5055809;28;20373;-78
2021/08/09 06:40:58;;;;;;;;;;;16.10;99.90;;;;;;5038185;28;20025;-77
2021/08/09 06:43:24;;;;;;;10.13;5.82;;;16.10;99.90;;;;;;5055844;28;19905;-78
2021/08/09 06:45:50;;;;;;;;;;;16.30;99.90;;;;;;5037829;28;20037;-76
2021/08/09 06:48:16;;;;;;;12.23;5.88;;;16.20;99.90;;;;;;5055678;28;19912;-77
2021/08/09 06:50:41;;;;;;;;;;;16.30;99.90;;;;;;5055932;28;20049;-79
2021/08/09 06:53:08;;;;;;;10.32;5.72;;;16.40;99.90;;;;;;5055506;28;19944;-77
2021/08/09 06:55:34;;;;;;;10.52;5.50;;;16.20;99.90;;;;;;5055590;28;20028;-77
2021/08/09 06:58:00;;;;;;;;;;;16.30;99.90;;;;;;5055820;28;20097;-78
2021/08/09 07:00:26;;;;;;;13.95;10.27;;;16.40;99.90;;;;;;5055338;28;20273;-77
2021/08/09 07:02:51;;;;;;;;;;;16.30;99.90;;;;;;5055695;28;20029;-76
2021/08/09 07:05:19;;;;;;;10.35;5.47;;;16.50;99.90;;;;;;5055283;28;19912;-79
2021/08/09 07:07:45;;;;;;;10.38;5.72;;;16.50;99.90;;;;;;5054326;28;20106;-76
2021/08/09 07:10:10;;;;;;;;;;;16.50;99.90;;;;;;5055599;28;20049;-77
2021/08/09 07:12:36;;;;;;;8.25;5.28;;;16.40;99.90;;;;;;5055605;28;19905;-78
2021/08/09 07:15:03;;;;;;;9.75;6.93;;;16.40;99.90;;;;;;5055067;28;20068;-77
2021/08/09 07:17:29;;;;;;;9.52;5.43;;;16.40;99.90;;;;;;5054516;28;20516;-78
2021/08/09 07:19:54;;;;;;;;;;;16.60;99.90;;;;;;5055401;28;20029;-77
2021/08/09 07:22:20;;;;;;;7.72;4.65;;;16.90;99.90;;;;;;5055113;28;19905;-77
2021/08/09 07:24:46;;;;;;;;;;;17.20;99.90;;;;;;5055206;28;20437;-77
2021/08/09 07:27:12;;;;;;;9.27;4.68;;;17.40;99.90;;;;;;5036937;28;20297;-76
2021/08/09 07:29:38;;;;;;;7.45;4.68;;;17.70;99.90;;;;;;5054953;28;20104;-77
2021/08/09 07:32:04;;;;;;;11.63;4.90;;;17.80;99.90;;;;;;5054801;28;20509;-77
2021/08/09 07:34:29;;;;;;;;;;;17.60;99.90;;;;;;5055193;28;20029;-78
2021/08/09 07:36:55;;;;;;;8.98;4.70;;;17.70;99.90;;;;;;5054882;28;20292;-78
2021/08/09 07:39:21;;;;;;;;;;;17.90;99.90;;;;;;5037188;28;20024;-78
2021/08/09 07:41:46;;;;;;;9.07;4.85;;;17.80;99.90;;;;;;5054625;28;19950;-77
2021/08/09 07:44:12;;;;;;;;;;;17.70;99.90;;;;;;5054772;28;20414;-77
2021/08/09 07:46:38;;;;;;;9.13;6.07;;;17.80;99.90;;;;;;5054671;28;19909;-77
2021/08/09 07:49:03;;;;;;;;;;;17.50;99.90;;;;;;5054870;28;20500;-79
2021/08/09 07:51:29;;;;;;;6.95;4.47;;;17.50;99.90;;;;;;5054491;28;19904;-78
2021/08/09 07:53:54;;;;;;;;;;;17.60;99.90;;;;;;5054807;28;20029;-78
2021/08/09 07:56:20;;;;;;;8.80;5.95;;;17.30;99.90;;;;;;5036482;28;19905;-78
2021/08/09 07:58:46;;;;;;;;;;;17.30;99.90;;;;;;5054683;28;20098;-77
2021/08/09 08:01:12;;;;;;;9.20;5.68;;;17.30;99.90;;;;;;5054435;28;19943;-78
2021/08/09 08:03:37;;;;;;;;;;;17.30;99.90;;;;;;5036698;28;20154;-78
2021/08/09 08:06:03;;;;;;;7.95;4.43;;;17.50;99.90;;;;;;5054025;28;19920;-79
2021/08/09 08:08:28;;;;;;;;;;;17.80;99.90;;;;;;5054472;28;20025;-78
2021/08/09 08:10:54;;;;;;;7.85;4.53;;;18.00;99.90;;;;;;5054376;28;19911;-76
2021/08/09 08:13:20;;;;;;;8.55;5.45;;;18.40;99.90;;;;;;5053909;28;20051;-77
2021/08/09 08:15:46;;;;;;;7.75;4.43;;;18.50;99.90;;;;;;5053843;28;20473;-78
2021/08/09 08:18:11;;;;;;;7.25;4.18;;;18.50;99.90;;;;;;5035928;28;20036;-77
2021/08/09 08:20:37;;;;;;;39.75;29.02;;;18.70;99.90;;;;;;5053835;28;20096;-77
2021/08/09 08:23:04;;;;;;;8.07;5.28;;;18.90;99.90;;;;;;5053724;28;20107;-79
2021/08/09 08:25:30;;;;;;;10.00;4.60;;;18.70;99.90;;;;;;5053802;28;20025;-78
2021/08/09 08:27:56;;;;;;;7.00;5.30;;;18.50;99.90;;;;;;5053623;28;20025;-76
2021/08/09 08:30:22;;;;;;;6.15;4.47;;;18.40;99.90;;;;;;5053653;28;20013;-78
2021/08/09 08:32:48;;;;;;;7.95;5.00;;;18.50;99.90;;;;;;5053613;28;20017;-78
2021/08/09 08:35:14;;;;;;;10.30;8.90;;;18.90;99.90;;;;;;5053550;28;20079;-79
2021/08/09 08:37:40;;;;;;;18.80;16.77;;;20.40;99.90;;;;;;5053516;28;20026;-79
2021/08/09 08:40:06;;;;;;;8.60;7.18;;;20.60;99.90;;;;;;5053470;28;20044;-78
2021/08/09 08:42:32;;;;;;;8.25;4.88;;;20.90;99.90;;;;;;5053440;28;20029;-78
2021/08/09 08:44:58;;;;;;;10.90;9.40;;;21.10;99.90;;;;;;5053095;28;20051;-76
2021/08/09 08:47:25;;;;;;;26.42;17.20;;;20.60;99.90;;;;;;5053292;28;20025;-79
2021/08/09 08:49:53;;;;;;;8.82;7.32;;;20.10;99.90;;;;;;5053550;28;20044;-77
2021/08/09 08:52:19;;;;;;;8.70;6.13;;;19.90;99.90;;;;;;5053296;28;20418;-78
2021/08/09 08:54:45;;;;;;;9.23;7.63;;;20.00;99.90;;;;;;5053211;28;20100;-79
2021/08/09 08:57:22;;;;;;;8.98;6.78;;;20.20;99.90;;;;;;5053219;28;20126;-78
2021/08/09 08:59:48;;;;;;;30.30;19.40;;;20.60;99.90;;;;;;5053212;28;20478;-77
2021/08/09 09:02:35;;;;;;;8.95;5.80;;;20.60;99.90;;;;;;5053301;28;20474;-77
2021/08/09 09:05:08;;;;;;;10.45;5.68;;;21.30;99.90;;;;;;5035008;28;20432;-76
2021/08/09 09:07:34;;;;;;;8.70;5.93;;;21.60;99.90;;;;;;5053314;28;20090;-78
2021/08/09 09:10:19;;;;;;;9.60;8.60;;;21.90;99.90;;;;;;5053355;28;20469;-78
2021/08/09 09:13:04;;;;;;;;;;;21.50;99.90;;;;;;5053492;28;20021;-79
2021/08/09 09:15:29;;;;;;;12.25;9.43;;;21.90;99.90;;;;;;5034987;28;19904;-79
2021/08/09 09:17:56;;;;;;;21.13;13.98;;;21.50;99.90;;;;;;5053012;28;20551;-78
2021/08/09 09:20:27;;;;;;;24.67;19.65;;;21.20;99.90;;;;;;5052996;28;20033;-78
2021/08/09 09:23:14;;;;;;;11.70;8.15;;;20.30;99.90;;;;;;5035100;28;20036;-79
2021/08/09 09:25:40;;;;;;;10.18;6.57;;;20.60;99.90;;;;;;5053014;28;20436;-77
2021/08/09 09:28:28;;;;;;;10.85;7.28;;;20.20;99.90;;;;;;5035049;28;20061;-79
2021/08/09 09:30:57;;;;;;;23.45;18.65;;;20.10;99.90;;;;;;5054706;28;20075;-79
2021/08/09 09:33:23;;;;;;;54.22;39.80;;;19.70;99.90;;;;;;5057030;28;20491;-79
2021/08/09 09:35:50;;;;;;;13.80;12.30;;;19.40;99.90;;;;;;5057009;28;20028;-78
2021/08/09 09:38:17;;;;;;;37.33;26.10;;;19.70;99.90;;;;;;5057009;28;20436;-78
2021/08/09 09:40:43;;;;;;;13.27;11.77;;;19.80;99.90;;;;;;5038923;28;20075;-80
2021/08/09 09:43:20;;;;;;;8.85;5.78;;;20.20;99.90;;;;;;5038919;28;20029;-79
2021/08/09 09:45:55;;;;;;;10.05;5.88;;;20.90;99.90;;;;;;5056798;28;20043;-81
2021/08/09 09:48:38;;;;;;;18.25;16.27;;;21.90;99.90;;;;;;5055175;28;20029;-78
2021/08/09 09:51:11;;;;;;;9.38;7.63;;;22.20;99.90;;;;;;5055200;28;20017;-78
2021/08/09 09:53:36;;;;;;;62.20;46.95;;;22.40;99.90;;;;;;5056791;28;20489;-78
2021/08/09 09:56:03;;;;;;;8.75;6.00;;;22.20;99.90;;;;;;5056628;28;20036;-78
2021/08/09 09:58:30;;;;;;;9.63;7.70;;;22.80;99.90;;;;;;5055229;28;20017;-78
2021/08/09 10:00:58;;;;;;;12.25;8.00;;;23.10;99.90;;;;;;5056512;28;20028;-79
2021/08/09 10:03:24;;;;;;;11.90;10.70;;;23.20;99.90;;;;;;5056512;28;20496;-79
2021/08/09 10:05:50;;;;;;;17.88;16.17;;;23.50;99.90;;;;;;5056374;28;20112;-78
2021/08/09 10:08:18;;;;;;;12.32;11.10;;;23.20;99.90;;;;;;5056486;28;20386;-78
2021/08/09 10:10:49;;;;;;;29.05;26.60;;;24.20;99.90;;;;;;5056471;28;20021;-78
2021/08/09 10:13:20;;;;;;;9.77;8.77;;;25.20;99.90;;;;;;5054987;28;20025;-79
2021/08/09 10:15:58;;;;;;;10.60;8.90;;;26.40;99.90;;;;;;5056624;28;20029;-79
2021/08/09 10:18:31;;;;;;;12.85;9.73;;;26.00;99.90;;;;;;5056204;28;20013;-80
2021/08/09 10:20:59;;;;;;;20.48;18.63;;;26.40;99.00;;;;;;5056148;28;20080;-80
2021/08/09 10:23:41;;;;;;;49.88;45.83;;;27.70;98.00;;;;;;5056001;28;20017;-79
2021/08/09 10:26:15;;;;;;;26.85;24.85;;;29.60;90.70;;;;;;5056127;28;20051;-79
2021/08/09 10:28:56;;;;;;;40.40;37.22;;;28.50;91.10;;;;;;5054515;28;20119;-80
2021/08/09 10:31:26;;;;;;;11.90;8.60;;;29.10;90.70;;;;;;5056135;28;20052;-80
2021/08/09 10:33:53;;;;;;;18.33;16.73;;;29.70;85.90;;;;;;5056190;28;20381;-81
2021/08/09 10:36:22;;;;;;;17.73;15.95;;;29.20;90.40;;;;;;5055948;28;20032;-80
2021/08/09 10:39:06;;;;;;;11.48;10.27;;;30.30;81.80;;;;;;5055799;28;20036;-81
2021/08/09 10:41:33;;;;;;;61.70;55.67;;;31.80;74.40;;;;;;5055453;28;20036;-80
2021/08/09 10:44:02;;;;;;;21.00;19.20;;;30.90;75.10;;;;;;5055293;28;20045;-80
2021/08/09 10:46:36;;;;;;;15.80;14.45;;;33.00;69.30;;;;;;5055742;28;20032;-81
2021/08/09 10:49:02;;;;;;;21.85;20.00;;;33.10;65.20;;;;;;5037680;28;20116;-81
2021/08/09 10:51:50;;;;;;;31.63;29.25;;;33.90;61.10;;;;;;5037569;28;20492;-79
2021/08/09 10:54:29;;;;;;;63.67;57.17;;;32.30;67.30;;;;;;5037590;28;20390;-82
2021/08/09 10:56:56;;;;;;;19.15;17.60;;;34.10;59.80;;;;;;5055353;28;20035;-81
2021/08/09 10:59:39;;;;;;;157.90;140.77;;;35.20;58.60;;;;;;5037513;28;20052;-81
2021/08/09 11:02:35;;;;;;;20.95;19.35;;;32.40;56.60;;;;;;5037434;28;20048;-80
2021/08/09 11:05:14;;;;;;;128.63;115.85;;;30.90;61.40;;;;;;5053380;28;20056;-79
2021/08/09 11:07:44;;;;;;;10.40;9.20;;;28.00;73.60;;;;;;5037316;28;20029;-80
2021/08/09 11:10:10;;;;;;;11.60;8.32;;;28.30;83.60;;;;;;5037061;28;20056;-78
2021/08/09 11:13:00;;;;;;;15.38;12.13;;;27.30;83.50;;;;;;5055245;28;20025;-79
2021/08/09 11:15:27;;;;;;;26.90;17.63;;;25.70;90.20;;;;;;5055181;28;20025;-81
2021/08/09 11:17:55;;;;;;;10.40;6.55;;;25.80;90.30;;;;;;5055010;28;20468;-79
2021/08/09 11:20:29;;;;;;;12.27;6.10;;;25.90;88.70;;;;;;5055036;28;20017;-78
2021/08/09 11:23:10;;;;;;;10.67;7.37;;;25.00;91.40;;;;;;5055025;28;20052;-79
2021/08/09 11:25:39;;;;;;;45.45;40.78;;;27.90;86.80;;;;;;5055042;28;20032;-80
2021/08/09 11:28:09;;;;;;;33.03;30.08;;;28.40;76.20;;;;;;5036985;28;20108;-80
2021/08/09 11:30:36;;;;;;;21.80;20.10;;;30.50;72.60;;;;;;5036706;28;20056;-80
2021/08/09 11:33:03;;;;;;;17.10;15.55;;;29.20;73.20;;;;;;5054769;28;20021;-80
2021/08/09 11:35:28;;;;;;;42.72;39.50;;;30.80;65.70;;;;;;5054753;28;20029;-80
2021/08/09 11:38:01;;;;;;;41.25;36.38;;;30.50;67.40;;;;;;5054892;28;20047;-81
2021/08/09 11:40:38;;;;;;;27.27;24.55;;;28.70;69.50;;;;;;5054710;28;20543;-80
2021/08/09 11:43:05;;;;;;;146.15;130.13;;;27.60;75.40;;;;;;5036519;28;20087;-78
2021/08/09 11:45:31;;;;;;;62.55;56.45;;;30.40;70.30;;;;;;5054137;28;20095;-80
2021/08/09 11:47:57;;;;;;;11.45;10.30;;;29.90;66.80;;;;;;5054477;28;20032;-80
2021/08/09 11:50:23;;;;;;;18.55;16.83;;;32.10;63.30;;;;;;5036561;28;20448;-79
2021/08/09 11:52:51;;;;;;;44.33;40.25;;;30.00;64.70;;;;;;5054223;28;20017;-80
2021/08/09 11:55:22;;;;;;;61.88;55.85;;;29.70;70.60;;;;;;5054288;28;20037;-79
2021/08/09 11:57:49;;;;;;;18.60;16.70;;;29.10;70.40;;;;;;5054253;28;20032;-80
2021/08/09 12:00:16;;;;;;;13.45;9.23;;;28.00;71.40;;;;;;5036364;28;20027;-79
2021/08/09 12:03:10;;;;;;;8.77;5.80;;;25.60;83.00;;;;;;5054316;28;20025;-79
2021/08/09 12:05:37;;;;;;;33.88;20.55;;;24.50;91.10;;;;;;5036303;28;20036;-79
2021/08/09 12:08:05;;;;;;;23.63;14.95;;;24.10;93.00;;;;;;5036193;28;20111;-79
2021/08/09 12:10:35;;;;;;;7.97;5.38;;;24.50;93.50;;;;;;5054005;28;20056;-79
2021/08/09 12:13:02;;;;;;;9.20;5.95;;;24.60;93.60;;;;;;5054162;28;20425;-79
2021/08/09 12:15:28;;;;;;;8.82;6.07;;;27.70;84.60;;;;;;5053934;28;20017;-79
2021/08/09 12:18:05;;;;;;;14.75;10.20;;;28.40;76.70;;;;;;5035940;28;20112;-80
2021/08/09 12:20:32;;;;;;;7.93;4.70;;;27.70;83.40;;;;;;5035997;28;20032;-80
2021/08/09 12:22:58;;;;;;;10.07;5.90;;;25.90;88.10;;;;;;5053908;28;20025;-79
2021/08/09 12:25:37;;;;;;;18.65;14.55;;;25.10;89.20;;;;;;5053704;28;20396;-80
2021/08/09 12:28:06;;;;;;;130.25;76.38;;;24.40;93.30;;;;;;5053981;28;20025;-79
2021/08/09 12:30:53;;;;;;;33.28;21.10;;;22.90;99.90;;;;;;5035809;28;20409;-79
2021/08/09 12:33:19;;;;;;;9.02;6.82;;;22.50;99.90;;;;;;5053795;28;20048;-78
2021/08/09 12:35:45;;;;;;;8.20;6.05;;;23.40;99.90;;;;;;5053566;28;20437;-78
2021/08/09 12:38:13;;;;;;;12.52;10.80;;;24.60;99.90;;;;;;5053465;28;20017;-79
2021/08/09 12:40:52;;;;;;;9.48;8.00;;;24.90;99.30;;;;;;5053553;28;20029;-80
2021/08/09 12:43:20;;;;;;;13.10;11.80;;;27.60;95.40;;;;;;5053648;28;20024;-80
2021/08/09 12:45:47;;;;;;;11.18;8.88;;;26.80;93.00;;;;;;5053480;28;20033;-79
2021/08/09 12:48:14;;;;;;;10.85;9.13;;;26.00;96.50;;;;;;5053461;28;20025;-79
2021/08/09 12:50:41;;;;;;;10.40;6.63;;;25.80;95.10;;;;;;5053434;28;20025;-79
2021/08/09 12:53:08;;;;;;;11.43;7.53;;;28.50;92.60;;;;;;5053366;28;20103;-80
2021/08/09 12:55:34;;;;;;;15.23;13.63;;;28.50;86.80;;;;;;5053342;28;20029;-80
2021/08/09 12:58:05;;;;;;;22.38;19.35;;;28.70;82.70;;;;;;5053434;28;20025;-79